sensor_id;sensor_type;location;lat;lon;timestamp;P1;durP1;ratioP1;P2;durP2;ratioP2
22476;SDS011;65006;51.698;-0.292;2022-12-16T00:00:04;16.30;;;7.47;;
22476;SDS011;65006;51.698;-0.292;2022-12-16T00:02:31;16.00;;;7.13;;
22476;SDS011;65006;51.698;-0.292;2022-12-16T00:04:57;21.77;;;7.95;;
22476;SDS011;65006;51.698;-0.292;2022-12-16T00:07:23;18.58;;;7.82;;
22476;SDS011;65006;51.698;-0.292;2022-12-16T00:09:49;19.20;;;7.57;;
22476;SDS011;65006;51.698;-0.292;2022-12-16T00:12:15;14.88;;;8.02;;
22476;SDS011;65006;51.698;-0.292;2022-12-16T00:14:41;26.70;;;8.35;;
22476;SDS011;65006;51.698;-0.292;2022-12-16T00:17:07;17.20;;;7.88;;
22476;SDS011;65006;51.698;-0.292;2022-12-16T00:19:33;15.98;;;8.38;;
22476;SDS011;65006;51.698;-0.292;2022-12-16T00:21:59;19.20;;;7.88;;
22476;SDS011;65006;51.698;-0.292;2022-12-16T00:24:25;20.70;;;8.63;;
22476;SDS011;65006;51.698;-0.292;2022-12-16T00:26:51;14.82;;;7.93;;
22476;SDS011;65006;51.698;-0.292;2022-12-16T00:29:17;18.73;;;9.13;;
22476;SDS011;65006;51.698;-0.292;2022-12-16T00:31:43;17.20;;;7.93;;
22476;SDS011;65006;51.698;-0.292;2022-12-16T00:34:12;14.25;;;7.38;;
22476;SDS011;65006;51.698;-0.292;2022-12-16T00:39:05;17.48;;;7.05;;
22476;SDS011;65006;51.698;-0.292;2022-12-16T00:41:31;16.48;;;7.15;;
22476;SDS011;65006;51.698;-0.292;2022-12-16T00:43:57;13.00;;;7.50;;
22476;SDS011;65006;51.698;-0.292;2022-12-16T00:46:23;17.42;;;8.02;;
22476;SDS011;65006;51.698;-0.292;2022-12-16T00:48:49;16.92;;;7.00;;
22476;SDS011;65006;51.698;-0.292;2022-12-16T00:51:15;17.17;;;7.80;;
22476;SDS011;65006;51.698;-0.292;2022-12-16T00:53:41;23.10;;;8.68;;
22476;SDS011;65006;51.698;-0.292;2022-12-16T00:56:07;15.13;;;7.22;;
22476;SDS011;65006;51.698;-0.292;2022-12-16T00:58:34;25.35;;;9.27;;
22476;SDS011;65006;51.698;-0.292;2022-12-16T01:01:00;20.75;;;8.82;;
22476;SDS011;65006;51.698;-0.292;2022-12-16T01:03:26;16.80;;;8.70;;
22476;SDS011;65006;51.698;-0.292;2022-12-16T01:05:52;20.42;;;8.88;;
22476;SDS011;65006;51.698;-0.292;2022-12-16T01:08:18;19.73;;;8.52;;
22476;SDS011;65006;51.698;-0.292;2022-12-16T01:10:51;14.88;;;8.00;;
22476;SDS011;65006;51.698;-0.292;2022-12-16T01:13:18;20.38;;;7.80;;
22476;SDS011;65006;51.698;-0.292;2022-12-16T01:15:44;19.40;;;8.25;;
22476;SDS011;65006;51.698;-0.292;2022-12-16T01:18:10;18.40;;;9.02;;
22476;SDS011;65006;51.698;-0.292;2022-12-16T01:20:36;17.58;;;9.40;;
22476;SDS011;65006;51.698;-0.292;2022-12-16T01:23:03;27.23;;;8.80;;
22476;SDS011;65006;51.698;-0.292;2022-12-16T01:25:30;18.13;;;8.65;;
22476;SDS011;65006;51.698;-0.292;2022-12-16T01:27:56;17.77;;;8.52;;
22476;SDS011;65006;51.698;-0.292;2022-12-16T01:30:22;16.20;;;8.82;;
22476;SDS011;65006;51.698;-0.292;2022-12-16T01:35:14;16.77;;;8.73;;
22476;SDS011;65006;51.698;-0.292;2022-12-16T01:37:41;22.67;;;9.13;;
22476;SDS011;65006;51.698;-0.292;2022-12-16T01:40:08;19.63;;;8.00;;
22476;SDS011;65006;51.698;-0.292;2022-12-16T01:42:38;25.05;;;9.38;;
22476;SDS011;65006;51.698;-0.292;2022-12-16T01:47:51;18.67;;;8.13;;
22476;SDS011;65006;51.698;-0.292;2022-12-16T01:50:18;21.48;;;8.95;;
22476;SDS011;65006;51.698;-0.292;2022-12-16T01:52:49;25.60;;;9.57;;
22476;SDS011;65006;51.698;-0.292;2022-12-16T01:55:18;22.98;;;9.07;;
22476;SDS011;65006;51.698;-0.292;2022-12-16T01:57:46;18.85;;;9.10;;
22476;SDS011;65006;51.698;-0.292;2022-12-16T02:00:13;24.10;;;9.88;;
22476;SDS011;65006;51.698;-0.292;2022-12-16T02:05:05;18.98;;;8.82;;
22476;SDS011;65006;51.698;-0.292;2022-12-16T02:10:23;22.85;;;9.45;;
22476;SDS011;65006;51.698;-0.292;2022-12-16T02:12:55;16.90;;;8.80;;
22476;SDS011;65006;51.698;-0.292;2022-12-16T02:15:28;22.52;;;9.63;;
22476;SDS011;65006;51.698;-0.292;2022-12-16T02:18:04;22.52;;;9.02;;
22476;SDS011;65006;51.698;-0.292;2022-12-16T02:34:03;20.45;;;7.88;;
22476;SDS011;65006;51.698;-0.292;2022-12-16T02:36:16;17.17;;;8.25;;
22476;SDS011;65006;51.698;-0.292;2022-12-16T02:38:52;21.63;;;8.70;;
22476;SDS011;65006;51.698;-0.292;2022-12-16T02:41:26;23.05;;;9.88;;
22476;SDS011;65006;51.698;-0.292;2022-12-16T02:43:57;18.33;;;9.45;;
22476;SDS011;65006;51.698;-0.292;2022-12-16T02:46:25;21.00;;;8.55;;
22476;SDS011;65006;51.698;-0.292;2022-12-16T02:48:51;16.15;;;8.80;;
22476;SDS011;65006;51.698;-0.292;2022-12-16T02:53:43;20.08;;;8.30;;
22476;SDS011;65006;51.698;-0.292;2022-12-16T02:58:47;21.48;;;8.82;;
22476;SDS011;65006;51.698;-0.292;2022-12-16T03:03:48;21.58;;;8.73;;
22476;SDS011;65006;51.698;-0.292;2022-12-16T03:06:16;24.63;;;8.45;;
22476;SDS011;65006;51.698;-0.292;2022-12-16T03:08:45;17.75;;;8.48;;
22476;SDS011;65006;51.698;-0.292;2022-12-16T03:11:13;28.17;;;9.60;;
22476;SDS011;65006;51.698;-0.292;2022-12-16T03:13:42;15.75;;;8.85;;
22476;SDS011;65006;51.698;-0.292;2022-12-16T03:16:10;21.10;;;9.35;;
22476;SDS011;65006;51.698;-0.292;2022-12-16T03:18:39;16.50;;;9.57;;
22476;SDS011;65006;51.698;-0.292;2022-12-16T03:21:06;18.33;;;9.60;;
22476;SDS011;65006;51.698;-0.292;2022-12-16T03:23:47;17.90;;;8.95;;
22476;SDS011;65006;51.698;-0.292;2022-12-16T03:26:17;19.45;;;9.98;;
22476;SDS011;65006;51.698;-0.292;2022-12-16T03:31:16;17.83;;;8.95;;
22476;SDS011;65006;51.698;-0.292;2022-12-16T03:33:46;17.55;;;7.90;;
22476;SDS011;65006;51.698;-0.292;2022-12-16T03:36:16;19.00;;;9.95;;
22476;SDS011;65006;51.698;-0.292;2022-12-16T03:38:45;19.52;;;9.85;;
22476;SDS011;65006;51.698;-0.292;2022-12-16T03:41:12;20.98;;;10.07;;
22476;SDS011;65006;51.698;-0.292;2022-12-16T03:43:39;22.65;;;10.68;;
22476;SDS011;65006;51.698;-0.292;2022-12-16T03:46:05;22.88;;;10.60;;
22476;SDS011;65006;51.698;-0.292;2022-12-16T03:48:32;28.13;;;10.43;;
22476;SDS011;65006;51.698;-0.292;2022-12-16T03:50:59;22.63;;;10.00;;
22476;SDS011;65006;51.698;-0.292;2022-12-16T03:53:25;18.80;;;9.68;;
22476;SDS011;65006;51.698;-0.292;2022-12-16T03:55:52;24.20;;;10.00;;
22476;SDS011;65006;51.698;-0.292;2022-12-16T03:58:18;28.25;;;10.85;;
22476;SDS011;65006;51.698;-0.292;2022-12-16T04:03:10;25.45;;;10.10;;
22476;SDS011;65006;51.698;-0.292;2022-12-16T04:05:37;21.48;;;10.82;;
22476;SDS011;65006;51.698;-0.292;2022-12-16T04:08:03;24.77;;;10.57;;
22476;SDS011;65006;51.698;-0.292;2022-12-16T04:10:30;22.95;;;11.40;;
22476;SDS011;65006;51.698;-0.292;2022-12-16T04:13:14;19.20;;;9.77;;
22476;SDS011;65006;51.698;-0.292;2022-12-16T04:15:59;19.80;;;10.63;;
22476;SDS011;65006;51.698;-0.292;2022-12-16T04:18:44;25.52;;;10.50;;
22476;SDS011;65006;51.698;-0.292;2022-12-16T04:21:29;23.45;;;11.05;;
22476;SDS011;65006;51.698;-0.292;2022-12-16T04:24:15;20.27;;;9.80;;
22476;SDS011;65006;51.698;-0.292;2022-12-16T04:26:45;17.90;;;9.25;;
22476;SDS011;65006;51.698;-0.292;2022-12-16T04:29:30;26.17;;;10.45;;
22476;SDS011;65006;51.698;-0.292;2022-12-16T04:34:22;24.67;;;10.18;;
22476;SDS011;65006;51.698;-0.292;2022-12-16T04:37:00;22.95;;;9.70;;
22476;SDS011;65006;51.698;-0.292;2022-12-16T04:39:45;22.95;;;10.95;;
22476;SDS011;65006;51.698;-0.292;2022-12-16T04:42:30;23.52;;;11.32;;
22476;SDS011;65006;51.698;-0.292;2022-12-16T04:45:15;21.83;;;10.95;;
22476;SDS011;65006;51.698;-0.292;2022-12-16T04:48:01;22.23;;;9.85;;
22476;SDS011;65006;51.698;-0.292;2022-12-16T04:50:46;24.30;;;10.82;;
22476;SDS011;65006;51.698;-0.292;2022-12-16T04:53:30;22.33;;;10.15;;
22476;SDS011;65006;51.698;-0.292;2022-12-16T04:56:15;25.50;;;9.85;;
22476;SDS011;65006;51.698;-0.292;2022-12-16T04:59:00;20.95;;;10.38;;
22476;SDS011;65006;51.698;-0.292;2022-12-16T05:01:44;22.85;;;11.02;;
22476;SDS011;65006;51.698;-0.292;2022-12-16T05:04:49;21.38;;;10.55;;
22476;SDS011;65006;51.698;-0.292;2022-12-16T05:07:33;23.42;;;10.77;;
22476;SDS011;65006;51.698;-0.292;2022-12-16T05:10:18;19.50;;;9.93;;
22476;SDS011;65006;51.698;-0.292;2022-12-16T05:13:03;19.83;;;10.18;;
22476;SDS011;65006;51.698;-0.292;2022-12-16T05:15:47;29.88;;;10.43;;
22476;SDS011;65006;51.698;-0.292;2022-12-16T05:18:32;27.17;;;11.23;;
22476;SDS011;65006;51.698;-0.292;2022-12-16T05:21:17;24.08;;;10.63;;
22476;SDS011;65006;51.698;-0.292;2022-12-16T05:24:01;24.33;;;10.52;;
22476;SDS011;65006;51.698;-0.292;2022-12-16T05:26:46;27.70;;;12.02;;
22476;SDS011;65006;51.698;-0.292;2022-12-16T05:29:30;16.45;;;9.38;;
22476;SDS011;65006;51.698;-0.292;2022-12-16T05:32:15;30.98;;;11.63;;
22476;SDS011;65006;51.698;-0.292;2022-12-16T05:34:59;22.60;;;10.25;;
22476;SDS011;65006;51.698;-0.292;2022-12-16T05:37:44;22.50;;;10.98;;
22476;SDS011;65006;51.698;-0.292;2022-12-16T05:40:29;24.95;;;10.02;;
22476;SDS011;65006;51.698;-0.292;2022-12-16T05:43:14;21.42;;;10.23;;
22476;SDS011;65006;51.698;-0.292;2022-12-16T05:45:59;22.02;;;10.25;;
22476;SDS011;65006;51.698;-0.292;2022-12-16T05:48:43;27.25;;;11.18;;
22476;SDS011;65006;51.698;-0.292;2022-12-16T05:51:28;24.88;;;10.77;;
22476;SDS011;65006;51.698;-0.292;2022-12-16T05:54:12;20.90;;;10.50;;
22476;SDS011;65006;51.698;-0.292;2022-12-16T05:56:57;22.45;;;10.75;;
22476;SDS011;65006;51.698;-0.292;2022-12-16T05:59:42;24.30;;;11.20;;
22476;SDS011;65006;51.698;-0.292;2022-12-16T06:02:26;18.80;;;10.45;;
22476;SDS011;65006;51.698;-0.292;2022-12-16T06:05:11;29.15;;;10.45;;
22476;SDS011;65006;51.698;-0.292;2022-12-16T06:07:55;24.38;;;10.07;;
22476;SDS011;65006;51.698;-0.292;2022-12-16T06:10:40;22.65;;;9.32;;
22476;SDS011;65006;51.698;-0.292;2022-12-16T06:13:25;21.02;;;9.52;;
22476;SDS011;65006;51.698;-0.292;2022-12-16T06:16:10;17.85;;;9.45;;
22476;SDS011;65006;51.698;-0.292;2022-12-16T06:18:54;19.10;;;8.95;;
22476;SDS011;65006;51.698;-0.292;2022-12-16T06:21:39;19.85;;;9.68;;
22476;SDS011;65006;51.698;-0.292;2022-12-16T06:24:24;17.23;;;8.88;;
22476;SDS011;65006;51.698;-0.292;2022-12-16T06:27:08;18.60;;;10.02;;
22476;SDS011;65006;51.698;-0.292;2022-12-16T06:29:57;17.52;;;9.90;;
22476;SDS011;65006;51.698;-0.292;2022-12-16T06:32:42;17.48;;;8.02;;
22476;SDS011;65006;51.698;-0.292;2022-12-16T06:35:27;20.60;;;10.38;;
22476;SDS011;65006;51.698;-0.292;2022-12-16T06:38:11;21.70;;;10.10;;
22476;SDS011;65006;51.698;-0.292;2022-12-16T06:40:56;17.90;;;9.82;;
22476;SDS011;65006;51.698;-0.292;2022-12-16T06:43:41;21.52;;;9.73;;
22476;SDS011;65006;51.698;-0.292;2022-12-16T06:46:25;19.25;;;10.18;;
22476;SDS011;65006;51.698;-0.292;2022-12-16T06:49:10;21.60;;;10.65;;
22476;SDS011;65006;51.698;-0.292;2022-12-16T06:51:54;20.90;;;9.88;;
22476;SDS011;65006;51.698;-0.292;2022-12-16T06:54:39;20.70;;;10.13;;
22476;SDS011;65006;51.698;-0.292;2022-12-16T06:57:24;23.65;;;8.80;;
22476;SDS011;65006;51.698;-0.292;2022-12-16T07:00:08;17.65;;;9.15;;
22476;SDS011;65006;51.698;-0.292;2022-12-16T07:02:53;19.05;;;9.35;;
22476;SDS011;65006;51.698;-0.292;2022-12-16T07:05:38;19.50;;;9.80;;
22476;SDS011;65006;51.698;-0.292;2022-12-16T07:08:22;17.58;;;9.32;;
22476;SDS011;65006;51.698;-0.292;2022-12-16T07:11:07;24.73;;;10.00;;
22476;SDS011;65006;51.698;-0.292;2022-12-16T07:13:51;22.63;;;9.52;;
22476;SDS011;65006;51.698;-0.292;2022-12-16T07:16:36;20.77;;;10.40;;
22476;SDS011;65006;51.698;-0.292;2022-12-16T07:19:21;23.35;;;10.90;;
22476;SDS011;65006;51.698;-0.292;2022-12-16T07:22:05;23.48;;;11.10;;
22476;SDS011;65006;51.698;-0.292;2022-12-16T07:24:50;16.90;;;9.77;;
22476;SDS011;65006;51.698;-0.292;2022-12-16T07:27:35;25.88;;;9.63;;
22476;SDS011;65006;51.698;-0.292;2022-12-16T07:30:20;17.17;;;9.77;;
22476;SDS011;65006;51.698;-0.292;2022-12-16T07:33:05;15.63;;;9.27;;
22476;SDS011;65006;51.698;-0.292;2022-12-16T07:35:49;23.00;;;11.40;;
22476;SDS011;65006;51.698;-0.292;2022-12-16T07:38:34;23.35;;;10.43;;
22476;SDS011;65006;51.698;-0.292;2022-12-16T07:41:19;16.63;;;9.43;;
22476;SDS011;65006;51.698;-0.292;2022-12-16T07:44:03;23.10;;;10.32;;
22476;SDS011;65006;51.698;-0.292;2022-12-16T07:46:49;17.40;;;8.63;;
22476;SDS011;65006;51.698;-0.292;2022-12-16T07:49:34;16.52;;;9.75;;
22476;SDS011;65006;51.698;-0.292;2022-12-16T07:52:19;19.88;;;10.27;;
22476;SDS011;65006;51.698;-0.292;2022-12-16T07:55:04;18.52;;;9.73;;
22476;SDS011;65006;51.698;-0.292;2022-12-16T07:57:49;18.85;;;9.73;;
22476;SDS011;65006;51.698;-0.292;2022-12-16T08:00:34;16.27;;;8.43;;
22476;SDS011;65006;51.698;-0.292;2022-12-16T08:03:19;19.90;;;9.80;;
22476;SDS011;65006;51.698;-0.292;2022-12-16T08:06:03;22.73;;;10.10;;
22476;SDS011;65006;51.698;-0.292;2022-12-16T08:08:48;15.27;;;8.75;;
22476;SDS011;65006;51.698;-0.292;2022-12-16T08:11:33;21.00;;;9.25;;
22476;SDS011;65006;51.698;-0.292;2022-12-16T08:14:18;21.90;;;9.82;;
22476;SDS011;65006;51.698;-0.292;2022-12-16T08:17:02;21.77;;;9.50;;
22476;SDS011;65006;51.698;-0.292;2022-12-16T08:19:47;17.35;;;9.48;;
22476;SDS011;65006;51.698;-0.292;2022-12-16T08:22:31;20.17;;;8.13;;
22476;SDS011;65006;51.698;-0.292;2022-12-16T08:25:16;18.88;;;9.02;;
22476;SDS011;65006;51.698;-0.292;2022-12-16T08:28:01;18.27;;;9.05;;
22476;SDS011;65006;51.698;-0.292;2022-12-16T08:30:48;18.85;;;9.25;;
22476;SDS011;65006;51.698;-0.292;2022-12-16T08:33:33;18.83;;;9.57;;
22476;SDS011;65006;51.698;-0.292;2022-12-16T08:36:18;29.33;;;10.13;;
22476;SDS011;65006;51.698;-0.292;2022-12-16T08:39:02;18.80;;;9.65;;
22476;SDS011;65006;51.698;-0.292;2022-12-16T08:41:47;21.25;;;9.88;;
22476;SDS011;65006;51.698;-0.292;2022-12-16T08:44:32;19.52;;;10.23;;
22476;SDS011;65006;51.698;-0.292;2022-12-16T08:47:17;22.45;;;10.80;;
22476;SDS011;65006;51.698;-0.292;2022-12-16T08:50:01;20.23;;;10.85;;
22476;SDS011;65006;51.698;-0.292;2022-12-16T08:52:46;14.57;;;9.63;;
22476;SDS011;65006;51.698;-0.292;2022-12-16T08:55:31;27.08;;;10.52;;
22476;SDS011;65006;51.698;-0.292;2022-12-16T08:58:15;20.90;;;10.60;;
22476;SDS011;65006;51.698;-0.292;2022-12-16T09:01:00;24.35;;;11.80;;
22476;SDS011;65006;51.698;-0.292;2022-12-16T09:03:45;25.48;;;12.40;;
22476;SDS011;65006;51.698;-0.292;2022-12-16T09:06:30;25.95;;;10.82;;
22476;SDS011;65006;51.698;-0.292;2022-12-16T09:09:14;20.63;;;10.85;;
22476;SDS011;65006;51.698;-0.292;2022-12-16T09:11:59;19.10;;;10.80;;
22476;SDS011;65006;51.698;-0.292;2022-12-16T09:14:43;21.50;;;11.30;;
22476;SDS011;65006;51.698;-0.292;2022-12-16T09:17:28;19.88;;;9.95;;
22476;SDS011;65006;51.698;-0.292;2022-12-16T09:20:13;18.20;;;9.73;;
22476;SDS011;65006;51.698;-0.292;2022-12-16T09:23:00;17.52;;;10.73;;
22476;SDS011;65006;51.698;-0.292;2022-12-16T09:25:45;23.55;;;12.07;;
22476;SDS011;65006;51.698;-0.292;2022-12-16T09:28:30;22.85;;;12.68;;
22476;SDS011;65006;51.698;-0.292;2022-12-16T09:31:14;18.23;;;10.02;;
22476;SDS011;65006;51.698;-0.292;2022-12-16T09:33:59;17.65;;;9.98;;
22476;SDS011;65006;51.698;-0.292;2022-12-16T09:36:43;22.33;;;11.05;;
22476;SDS011;65006;51.698;-0.292;2022-12-16T09:39:28;22.45;;;12.63;;
22476;SDS011;65006;51.698;-0.292;2022-12-16T09:45:07;24.30;;;11.73;;
22476;SDS011;65006;51.698;-0.292;2022-12-16T09:48:02;25.10;;;12.05;;
22476;SDS011;65006;51.698;-0.292;2022-12-16T09:50:48;28.52;;;14.32;;
22476;SDS011;65006;51.698;-0.292;2022-12-16T09:53:36;30.55;;;14.43;;
22476;SDS011;65006;51.698;-0.292;2022-12-16T09:56:23;28.48;;;13.07;;
22476;SDS011;65006;51.698;-0.292;2022-12-16T09:59:13;29.70;;;14.70;;
22476;SDS011;65006;51.698;-0.292;2022-12-16T10:01:58;31.50;;;15.45;;
22476;SDS011;65006;51.698;-0.292;2022-12-16T10:04:44;28.52;;;14.27;;
22476;SDS011;65006;51.698;-0.292;2022-12-16T10:07:31;26.02;;;14.02;;
22476;SDS011;65006;51.698;-0.292;2022-12-16T10:16:11;29.98;;;13.70;;
22476;SDS011;65006;51.698;-0.292;2022-12-16T10:30:56;28.25;;;15.20;;
22476;SDS011;65006;51.698;-0.292;2022-12-16T10:33:41;30.90;;;14.23;;
22476;SDS011;65006;51.698;-0.292;2022-12-16T10:36:27;30.23;;;14.35;;
22476;SDS011;65006;51.698;-0.292;2022-12-16T10:39:22;27.55;;;13.70;;
22476;SDS011;65006;51.698;-0.292;2022-12-16T10:42:14;30.88;;;14.52;;
22476;SDS011;65006;51.698;-0.292;2022-12-16T10:45:00;24.90;;;14.55;;
22476;SDS011;65006;51.698;-0.292;2022-12-16T10:47:45;28.67;;;13.80;;
22476;SDS011;65006;51.698;-0.292;2022-12-16T10:50:30;34.42;;;14.50;;
22476;SDS011;65006;51.698;-0.292;2022-12-16T10:53:17;24.75;;;13.40;;
22476;SDS011;65006;51.698;-0.292;2022-12-16T10:56:27;27.05;;;14.15;;
22476;SDS011;65006;51.698;-0.292;2022-12-16T10:59:07;24.58;;;13.40;;
22476;SDS011;65006;51.698;-0.292;2022-12-16T11:02:00;27.85;;;14.23;;
22476;SDS011;65006;51.698;-0.292;2022-12-16T11:04:45;22.15;;;13.30;;
22476;SDS011;65006;51.698;-0.292;2022-12-16T11:07:31;27.40;;;13.95;;
22476;SDS011;65006;51.698;-0.292;2022-12-16T11:10:27;25.95;;;14.10;;
22476;SDS011;65006;51.698;-0.292;2022-12-16T11:16:07;32.80;;;13.05;;
22476;SDS011;65006;51.698;-0.292;2022-12-16T11:18:54;25.10;;;13.50;;
22476;SDS011;65006;51.698;-0.292;2022-12-16T11:21:39;26.05;;;13.13;;
22476;SDS011;65006;51.698;-0.292;2022-12-16T11:24:23;29.08;;;13.77;;
22476;SDS011;65006;51.698;-0.292;2022-12-16T11:27:13;26.27;;;13.63;;
22476;SDS011;65006;51.698;-0.292;2022-12-16T11:30:01;23.27;;;13.52;;
22476;SDS011;65006;51.698;-0.292;2022-12-16T11:32:50;25.52;;;14.02;;
22476;SDS011;65006;51.698;-0.292;2022-12-16T11:35:40;23.83;;;13.35;;
22476;SDS011;65006;51.698;-0.292;2022-12-16T11:41:27;20.05;;;12.57;;
22476;SDS011;65006;51.698;-0.292;2022-12-16T11:44:20;24.48;;;13.10;;
22476;SDS011;65006;51.698;-0.292;2022-12-16T11:47:10;27.73;;;13.80;;
22476;SDS011;65006;51.698;-0.292;2022-12-16T11:49:58;28.60;;;14.13;;
22476;SDS011;65006;51.698;-0.292;2022-12-16T11:52:44;21.02;;;11.65;;
22476;SDS011;65006;51.698;-0.292;2022-12-16T11:55:36;22.40;;;12.57;;
22476;SDS011;65006;51.698;-0.292;2022-12-16T11:58:30;28.65;;;13.15;;
22476;SDS011;65006;51.698;-0.292;2022-12-16T12:01:19;25.85;;;12.73;;
22476;SDS011;65006;51.698;-0.292;2022-12-16T12:04:06;22.08;;;12.85;;
22476;SDS011;65006;51.698;-0.292;2022-12-16T12:09:40;26.20;;;13.40;;
22476;SDS011;65006;51.698;-0.292;2022-12-16T12:15:44;25.85;;;12.68;;
22476;SDS011;65006;51.698;-0.292;2022-12-16T12:21:23;21.52;;;12.45;;
22476;SDS011;65006;51.698;-0.292;2022-12-16T12:24:11;24.83;;;12.07;;
22476;SDS011;65006;51.698;-0.292;2022-12-16T12:30:09;33.75;;;13.15;;
22476;SDS011;65006;51.698;-0.292;2022-12-16T12:38:23;31.35;;;13.88;;
22476;SDS011;65006;51.698;-0.292;2022-12-16T12:41:18;41.35;;;14.63;;
22476;SDS011;65006;51.698;-0.292;2022-12-16T12:44:13;36.40;;;14.60;;
22476;SDS011;65006;51.698;-0.292;2022-12-16T12:47:03;21.92;;;11.95;;
22476;SDS011;65006;51.698;-0.292;2022-12-16T12:52:55;20.92;;;11.73;;
22476;SDS011;65006;51.698;-0.292;2022-12-16T12:58:51;30.67;;;15.18;;
22476;SDS011;65006;51.698;-0.292;2022-12-16T13:01:36;30.83;;;15.55;;
22476;SDS011;65006;51.698;-0.292;2022-12-16T13:04:38;40.20;;;17.08;;
22476;SDS011;65006;51.698;-0.292;2022-12-16T13:07:30;30.52;;;15.57;;
22476;SDS011;65006;51.698;-0.292;2022-12-16T13:16:00;33.83;;;16.67;;
22476;SDS011;65006;51.698;-0.292;2022-12-16T13:18:45;33.83;;;16.35;;
22476;SDS011;65006;51.698;-0.292;2022-12-16T13:32:54;30.13;;;15.95;;
22476;SDS011;65006;51.698;-0.292;2022-12-16T13:35:55;40.80;;;17.27;;
22476;SDS011;65006;51.698;-0.292;2022-12-16T13:38:48;36.40;;;15.25;;
22476;SDS011;65006;51.698;-0.292;2022-12-16T13:51:06;22.30;;;12.82;;
22476;SDS011;65006;51.698;-0.292;2022-12-16T13:56:17;27.52;;;13.80;;
22476;SDS011;65006;51.698;-0.292;2022-12-16T13:59:04;28.23;;;14.77;;
22476;SDS011;65006;51.698;-0.292;2022-12-16T14:01:53;29.55;;;14.27;;
22476;SDS011;65006;51.698;-0.292;2022-12-16T14:04:43;31.63;;;13.70;;
22476;SDS011;65006;51.698;-0.292;2022-12-16T14:07:29;33.55;;;14.75;;
22476;SDS011;65006;51.698;-0.292;2022-12-16T14:13:14;29.95;;;14.95;;
22476;SDS011;65006;51.698;-0.292;2022-12-16T14:21:36;28.17;;;14.27;;
22476;SDS011;65006;51.698;-0.292;2022-12-16T14:24:25;33.58;;;14.60;;
22476;SDS011;65006;51.698;-0.292;2022-12-16T14:27:18;30.17;;;15.23;;
22476;SDS011;65006;51.698;-0.292;2022-12-16T14:30:13;27.67;;;13.68;;
22476;SDS011;65006;51.698;-0.292;2022-12-16T14:32:59;29.30;;;15.02;;
22476;SDS011;65006;51.698;-0.292;2022-12-16T14:35:47;32.30;;;14.35;;
22476;SDS011;65006;51.698;-0.292;2022-12-16T14:38:35;29.73;;;14.75;;
22476;SDS011;65006;51.698;-0.292;2022-12-16T14:41:21;27.27;;;14.02;;
22476;SDS011;65006;51.698;-0.292;2022-12-16T14:47:20;30.30;;;14.07;;
22476;SDS011;65006;51.698;-0.292;2022-12-16T14:50:17;37.55;;;14.30;;
22476;SDS011;65006;51.698;-0.292;2022-12-16T14:53:13;23.10;;;12.75;;
22476;SDS011;65006;51.698;-0.292;2022-12-16T15:01:53;28.77;;;13.85;;
22476;SDS011;65006;51.698;-0.292;2022-12-16T15:04:39;26.77;;;14.47;;
22476;SDS011;65006;51.698;-0.292;2022-12-16T15:07:24;34.10;;;14.55;;
22476;SDS011;65006;51.698;-0.292;2022-12-16T15:10:12;28.63;;;15.17;;
22476;SDS011;65006;51.698;-0.292;2022-12-16T15:12:57;32.03;;;16.05;;
22476;SDS011;65006;51.698;-0.292;2022-12-16T15:15:43;37.00;;;16.58;;
22476;SDS011;65006;51.698;-0.292;2022-12-16T15:18:31;32.95;;;16.42;;
22476;SDS011;65006;51.698;-0.292;2022-12-16T15:21:16;29.92;;;16.50;;
22476;SDS011;65006;51.698;-0.292;2022-12-16T15:24:02;34.63;;;16.30;;
22476;SDS011;65006;51.698;-0.292;2022-12-16T15:27:00;29.13;;;15.80;;
22476;SDS011;65006;51.698;-0.292;2022-12-16T15:29:55;40.40;;;17.65;;
22476;SDS011;65006;51.698;-0.292;2022-12-16T15:32:40;34.67;;;16.95;;
22476;SDS011;65006;51.698;-0.292;2022-12-16T15:41:20;31.85;;;16.85;;
22476;SDS011;65006;51.698;-0.292;2022-12-16T15:44:12;27.00;;;14.90;;
22476;SDS011;65006;51.698;-0.292;2022-12-16T15:46:57;34.28;;;16.40;;
22476;SDS011;65006;51.698;-0.292;2022-12-16T15:49:43;32.20;;;15.30;;
22476;SDS011;65006;51.698;-0.292;2022-12-16T15:55:56;28.42;;;15.02;;
22476;SDS011;65006;51.698;-0.292;2022-12-16T15:58:23;34.07;;;16.00;;
22476;SDS011;65006;51.698;-0.292;2022-12-16T16:01:09;30.58;;;14.63;;
22476;SDS011;65006;51.698;-0.292;2022-12-16T16:03:57;35.30;;;16.08;;
22476;SDS011;65006;51.698;-0.292;2022-12-16T16:06:46;29.40;;;15.25;;
22476;SDS011;65006;51.698;-0.292;2022-12-16T16:09:32;36.88;;;16.17;;
22476;SDS011;65006;51.698;-0.292;2022-12-16T16:12:18;33.17;;;16.25;;
22476;SDS011;65006;51.698;-0.292;2022-12-16T16:15:04;37.38;;;16.80;;
22476;SDS011;65006;51.698;-0.292;2022-12-16T16:18:00;38.55;;;18.30;;
22476;SDS011;65006;51.698;-0.292;2022-12-16T16:20:46;34.28;;;16.35;;
22476;SDS011;65006;51.698;-0.292;2022-12-16T16:23:32;44.08;;;17.10;;
22476;SDS011;65006;51.698;-0.292;2022-12-16T16:26:18;32.50;;;17.35;;
22476;SDS011;65006;51.698;-0.292;2022-12-16T16:29:03;35.40;;;15.45;;
22476;SDS011;65006;51.698;-0.292;2022-12-16T16:31:48;32.00;;;15.77;;
22476;SDS011;65006;51.698;-0.292;2022-12-16T16:34:33;33.10;;;14.85;;
22476;SDS011;65006;51.698;-0.292;2022-12-16T16:37:18;30.17;;;16.42;;
22476;SDS011;65006;51.698;-0.292;2022-12-16T16:43:07;28.38;;;12.20;;
22476;SDS011;65006;51.698;-0.292;2022-12-16T16:45:53;32.15;;;14.10;;
22476;SDS011;65006;51.698;-0.292;2022-12-16T16:48:38;23.98;;;11.55;;
22476;SDS011;65006;51.698;-0.292;2022-12-16T16:51:23;24.83;;;11.80;;
22476;SDS011;65006;51.698;-0.292;2022-12-16T16:54:08;24.83;;;12.23;;
22476;SDS011;65006;51.698;-0.292;2022-12-16T16:56:53;25.95;;;11.32;;
22476;SDS011;65006;51.698;-0.292;2022-12-16T16:59:37;28.88;;;14.15;;
22476;SDS011;65006;51.698;-0.292;2022-12-16T17:02:22;32.42;;;13.30;;
22476;SDS011;65006;51.698;-0.292;2022-12-16T17:05:11;24.33;;;14.13;;
22476;SDS011;65006;51.698;-0.292;2022-12-16T17:07:55;35.80;;;15.18;;
22476;SDS011;65006;51.698;-0.292;2022-12-16T17:10:40;27.10;;;14.32;;
22476;SDS011;65006;51.698;-0.292;2022-12-16T17:13:25;33.55;;;15.07;;
22476;SDS011;65006;51.698;-0.292;2022-12-16T17:16:10;29.60;;;15.13;;
22476;SDS011;65006;51.698;-0.292;2022-12-16T17:19:09;37.20;;;15.43;;
22476;SDS011;65006;51.698;-0.292;2022-12-16T17:21:54;39.10;;;18.25;;
22476;SDS011;65006;51.698;-0.292;2022-12-16T17:24:38;38.35;;;18.42;;
22476;SDS011;65006;51.698;-0.292;2022-12-16T17:27:23;32.88;;;19.27;;
22476;SDS011;65006;51.698;-0.292;2022-12-16T17:30:16;36.83;;;19.75;;
22476;SDS011;65006;51.698;-0.292;2022-12-16T17:33:01;42.53;;;19.63;;
22476;SDS011;65006;51.698;-0.292;2022-12-16T17:35:49;53.42;;;20.17;;
22476;SDS011;65006;51.698;-0.292;2022-12-16T17:38:38;39.35;;;19.65;;
22476;SDS011;65006;51.698;-0.292;2022-12-16T17:41:23;44.03;;;22.83;;
22476;SDS011;65006;51.698;-0.292;2022-12-16T17:44:08;57.63;;;23.45;;
22476;SDS011;65006;51.698;-0.292;2022-12-16T17:46:53;50.92;;;21.92;;
22476;SDS011;65006;51.698;-0.292;2022-12-16T17:49:37;41.47;;;22.52;;
22476;SDS011;65006;51.698;-0.292;2022-12-16T17:52:22;49.63;;;21.52;;
22476;SDS011;65006;51.698;-0.292;2022-12-16T17:55:07;48.20;;;20.67;;
22476;SDS011;65006;51.698;-0.292;2022-12-16T17:57:52;50.38;;;21.52;;
22476;SDS011;65006;51.698;-0.292;2022-12-16T18:00:36;47.40;;;23.23;;
22476;SDS011;65006;51.698;-0.292;2022-12-16T18:03:21;49.60;;;24.00;;
22476;SDS011;65006;51.698;-0.292;2022-12-16T18:06:06;54.50;;;24.67;;